Spirit of St Louis Airport
KSUS : now visible

Airfield :











YOU CAN JOIN US ON...

 
LOGIN :

Register | Disclaimer

   EN    FR    IT 

 









Legend :    VFR   Marginal VFR   IFR   Intensive IFR   Very Intensive IFR
Visi :
Ceiling :
>= 8 km
>= 3000ft
5 to 8 km
1000 to 3000 ft
1500m to 5 km
500 to 1000 ft
800 to 1500m
200 to 500 ft
< 800m
< 200 ft
Symbols :   Thunderstorms  Fog  Heavy snow  Heavy precipitations  Wind > 20 kt






- Airport Elevation : 463 ft


KSUS - Spirit of St Louis

CURRENT METAR :
  • 130354Z 19003KT 10SM CLR 06/M04 A3008 RMK AO2 SLP190 T00611039

EXPIRED METARs :
  • 130254Z 18007KT 10SM CLR 07/M04 A3009 RMK AO2 SLP192 T00671044 58008
  • 130154Z 17003KT 10SM CLR 07/M05 A3010 RMK AO2 SLP198 T00671050

TAF KSUS
Valid from the 13 at 00:00 until the 14 at 00:00 UTC


122335Z 1300/1324 17005KT P6SM SCT250
FM130900 VRB04KT P6SM OVC250
FM132200 15004KT P6SM BKN150



MET'MAP, your aeronautical weather chart ! - Copyright ORBIFLY December 2007 - Disclaimer

ORBIFLY MET'MAP TEAM :

Programming & Development : Alexandra Zaïnal
Concept & original design : Baudouin d'Aumeries
Assistance for programming : Marc-Olivier Méhu
Technical & hardware support : Manuel Goepfert

Contact : metmap@orbifly.com




SOURCES & CREDITS :

   NOAA       Earth
Advisory